sensor_id;sensor_type;location;lat;lon;timestamp;noise_LAeq;noise_LA_min;noise_LA_max;noise_LA01;noise_LA95
61095;Laerm;20450;49.074;9.158;2022-12-18T00:00:07;39.87;36.69;45.73;;
61095;Laerm;20450;49.074;9.158;2022-12-18T00:02:40;39.95;35.94;44.62;;
61095;Laerm;20450;49.074;9.158;2022-12-18T00:05:08;40.04;36.20;54.14;;
61095;Laerm;20450;49.074;9.158;2022-12-18T00:07:36;39.43;36.20;42.76;;
61095;Laerm;20450;49.074;9.158;2022-12-18T00:10:04;39.78;36.20;46.43;;
61095;Laerm;20450;49.074;9.158;2022-12-18T00:12:31;39.41;36.20;42.82;;
61095;Laerm;20450;49.074;9.158;2022-12-18T00:14:58;39.85;36.69;42.65;;
61095;Laerm;20450;49.074;9.158;2022-12-18T00:17:26;39.94;36.69;48.01;;
61095;Laerm;20450;49.074;9.158;2022-12-18T00:19:53;39.59;35.66;46.59;;
61095;Laerm;20450;49.074;9.158;2022-12-18T00:22:20;39.43;36.20;42.09;;
61095;Laerm;20450;49.074;9.158;2022-12-18T00:24:47;39.59;36.45;42.03;;
61095;Laerm;20450;49.074;9.158;2022-12-18T00:27:14;39.72;36.69;42.16;;
61095;Laerm;20450;49.074;9.158;2022-12-18T00:29:41;39.48;35.66;42.53;;
61095;Laerm;20450;49.074;9.158;2022-12-18T00:32:08;39.50;35.94;56.24;;
61095;Laerm;20450;49.074;9.158;2022-12-18T00:34:37;39.33;36.20;42.41;;
61095;Laerm;20450;49.074;9.158;2022-12-18T00:37:04;39.34;35.66;42.03;;
61095;Laerm;20450;49.074;9.158;2022-12-18T00:39:31;39.55;35.66;49.44;;
61095;Laerm;20450;49.074;9.158;2022-12-18T00:41:58;39.20;35.36;41.53;;
61095;Laerm;20450;49.074;9.158;2022-12-18T00:44:25;39.24;36.20;42.65;;
61095;Laerm;20450;49.074;9.158;2022-12-18T00:46:52;39.60;35.94;42.22;;
61095;Laerm;20450;49.074;9.158;2022-12-18T00:49:20;39.52;35.94;42.93;;
61095;Laerm;20450;49.074;9.158;2022-12-18T00:51:48;39.51;35.66;42.53;;
61095;Laerm;20450;49.074;9.158;2022-12-18T00:54:16;39.38;36.20;42.16;;
61095;Laerm;20450;49.074;9.158;2022-12-18T00:56:43;39.38;36.20;41.82;;
61095;Laerm;20450;49.074;9.158;2022-12-18T00:59:17;39.46;35.66;42.88;;
61095;Laerm;20450;49.074;9.158;2022-12-18T01:01:45;39.99;35.66;48.29;;
61095;Laerm;20450;49.074;9.158;2022-12-18T01:04:13;39.46;36.45;46.64;;
61095;Laerm;20450;49.074;9.158;2022-12-18T01:06:42;39.40;36.45;41.96;;
61095;Laerm;20450;49.074;9.158;2022-12-18T01:09:11;39.38;35.94;42.53;;
61095;Laerm;20450;49.074;9.158;2022-12-18T01:11:39;39.31;35.59;42.35;;
61095;Laerm;20450;49.074;9.158;2022-12-18T01:14:06;39.60;36.45;42.22;;
61095;Laerm;20450;49.074;9.158;2022-12-18T01:16:33;39.15;35.66;41.61;;
61095;Laerm;20450;49.074;9.158;2022-12-18T01:19:00;39.15;35.36;42.09;;
61095;Laerm;20450;49.074;9.158;2022-12-18T01:21:27;39.15;35.66;41.89;;
61095;Laerm;20450;49.074;9.158;2022-12-18T01:23:56;39.10;35.66;42.53;;
61095;Laerm;20450;49.074;9.158;2022-12-18T01:26:25;39.24;35.94;41.75;;
61095;Laerm;20450;49.074;9.158;2022-12-18T01:28:54;39.04;35.36;41.46;;
61095;Laerm;20450;49.074;9.158;2022-12-18T01:31:26;39.25;35.94;49.55;;
61095;Laerm;20450;49.074;9.158;2022-12-18T01:33:55;38.95;35.94;42.65;;
61095;Laerm;20450;49.074;9.158;2022-12-18T01:36:24;39.13;35.94;42.35;;
61095;Laerm;20450;49.074;9.158;2022-12-18T01:38:53;39.50;35.94;42.35;;
61095;Laerm;20450;49.074;9.158;2022-12-18T01:41:23;39.23;36.34;48.36;;
61095;Laerm;20450;49.074;9.158;2022-12-18T01:43:55;39.38;35.94;42.22;;
61095;Laerm;20450;49.074;9.158;2022-12-18T01:46:27;39.27;35.94;41.75;;
61095;Laerm;20450;49.074;9.158;2022-12-18T01:48:59;39.37;36.20;42.29;;
61095;Laerm;20450;49.074;9.158;2022-12-18T01:51:27;39.03;35.94;41.68;;
61095;Laerm;20450;49.074;9.158;2022-12-18T01:53:56;38.95;35.36;41.53;;
61095;Laerm;20450;49.074;9.158;2022-12-18T01:56:24;39.05;35.36;41.82;;
61095;Laerm;20450;49.074;9.158;2022-12-18T01:59:00;39.12;35.66;41.96;;
61095;Laerm;20450;49.074;9.158;2022-12-18T02:01:31;39.19;35.94;41.89;;
61095;Laerm;20450;49.074;9.158;2022-12-18T02:04:20;39.53;35.66;50.02;;
61095;Laerm;20450;49.074;9.158;2022-12-18T02:06:54;39.26;35.86;42.22;;
61095;Laerm;20450;49.074;9.158;2022-12-18T02:09:33;39.33;35.36;43.39;;
61095;Laerm;20450;49.074;9.158;2022-12-18T02:12:10;39.17;35.94;41.46;;
61095;Laerm;20450;49.074;9.158;2022-12-18T02:14:48;39.55;36.20;44.27;;
61095;Laerm;20450;49.074;9.158;2022-12-18T02:17:21;39.23;36.45;42.29;;
61095;Laerm;20450;49.074;9.158;2022-12-18T02:20:07;39.44;36.20;45.60;;
61095;Laerm;20450;49.074;9.158;2022-12-18T02:22:57;39.29;35.36;46.52;;
61095;Laerm;20450;49.074;9.158;2022-12-18T02:25:55;39.01;35.66;41.75;;
61095;Laerm;20450;49.074;9.158;2022-12-18T02:28:34;38.92;35.66;41.38;;
61095;Laerm;20450;49.074;9.158;2022-12-18T02:31:11;39.00;35.66;41.82;;
61095;Laerm;20450;49.074;9.158;2022-12-18T02:33:43;39.54;35.66;46.07;;
61095;Laerm;20450;49.074;9.158;2022-12-18T02:36:14;38.94;35.94;41.61;;
61095;Laerm;20450;49.074;9.158;2022-12-18T02:38:45;39.15;36.20;41.75;;
61095;Laerm;20450;49.074;9.158;2022-12-18T02:41:18;39.35;35.94;43.58;;
61095;Laerm;20450;49.074;9.158;2022-12-18T02:43:56;39.11;35.04;44.49;;
61095;Laerm;20450;49.074;9.158;2022-12-18T02:46:31;39.40;35.04;46.13;;
61095;Laerm;20450;49.074;9.158;2022-12-18T02:49:13;38.89;34.69;41.61;;
61095;Laerm;20450;49.074;9.158;2022-12-18T02:51:53;39.13;35.66;41.75;;
61095;Laerm;20450;49.074;9.158;2022-12-18T02:54:41;38.92;35.66;42.41;;
61095;Laerm;20450;49.074;9.158;2022-12-18T02:57:20;38.94;34.69;42.03;;
61095;Laerm;20450;49.074;9.158;2022-12-18T03:00:00;39.47;34.69;46.07;;
61095;Laerm;20450;49.074;9.158;2022-12-18T03:02:38;39.34;35.94;46.57;;
61095;Laerm;20450;49.074;9.158;2022-12-18T03:05:15;39.09;34.69;44.03;;
61095;Laerm;20450;49.074;9.158;2022-12-18T03:07:52;38.71;35.66;41.61;;
61095;Laerm;20450;49.074;9.158;2022-12-18T03:10:28;38.79;35.36;41.38;;
61095;Laerm;20450;49.074;9.158;2022-12-18T03:13:05;39.04;35.66;41.68;;
61095;Laerm;20450;49.074;9.158;2022-12-18T03:15:41;39.02;35.36;41.68;;
61095;Laerm;20450;49.074;9.158;2022-12-18T03:18:17;38.97;35.36;41.75;;
61095;Laerm;20450;49.074;9.158;2022-12-18T03:20:49;38.95;35.66;42.03;;
61095;Laerm;20450;49.074;9.158;2022-12-18T03:23:27;38.87;35.36;41.38;;
61095;Laerm;20450;49.074;9.158;2022-12-18T03:26:03;38.94;35.66;41.82;;
61095;Laerm;20450;49.074;9.158;2022-12-18T03:28:45;39.05;35.66;41.75;;
61095;Laerm;20450;49.074;9.158;2022-12-18T03:31:15;39.02;35.66;41.75;;
61095;Laerm;20450;49.074;9.158;2022-12-18T03:33:51;39.10;35.66;41.68;;
61095;Laerm;20450;49.074;9.158;2022-12-18T03:36:24;38.97;35.94;42.47;;
61095;Laerm;20450;49.074;9.158;2022-12-18T03:38:52;39.18;35.36;42.09;;
61095;Laerm;20450;49.074;9.158;2022-12-18T03:41:31;39.10;35.66;41.75;;
61095;Laerm;20450;49.074;9.158;2022-12-18T03:44:28;38.84;35.36;41.82;;
61095;Laerm;20450;49.074;9.158;2022-12-18T03:47:07;38.72;35.36;41.38;;
61095;Laerm;20450;49.074;9.158;2022-12-18T03:49:46;38.76;35.04;41.53;;
61095;Laerm;20450;49.074;9.158;2022-12-18T03:52:26;38.77;35.66;42.82;;
61095;Laerm;20450;49.074;9.158;2022-12-18T03:54:58;38.80;34.69;42.03;;
61095;Laerm;20450;49.074;9.158;2022-12-18T03:57:31;38.78;35.36;41.14;;
61095;Laerm;20450;49.074;9.158;2022-12-18T04:00:07;38.74;35.36;41.96;;
61095;Laerm;20450;49.074;9.158;2022-12-18T04:02:55;38.94;34.69;41.96;;
61095;Laerm;20450;49.074;9.158;2022-12-18T04:05:35;38.88;35.36;42.76;;
61095;Laerm;20450;49.074;9.158;2022-12-18T04:08:05;39.20;35.36;42.47;;
61095;Laerm;20450;49.074;9.158;2022-12-18T04:10:36;39.19;36.20;42.59;;
61095;Laerm;20450;49.074;9.158;2022-12-18T04:13:04;38.95;35.04;43.39;;
61095;Laerm;20450;49.074;9.158;2022-12-18T04:15:35;38.91;35.66;44.83;;
61095;Laerm;20450;49.074;9.158;2022-12-18T04:18:07;38.67;35.04;42.53;;
61095;Laerm;20450;49.074;9.158;2022-12-18T04:20:40;38.66;35.36;41.30;;
61095;Laerm;20450;49.074;9.158;2022-12-18T04:23:08;38.68;35.04;41.22;;
61095;Laerm;20450;49.074;9.158;2022-12-18T04:25:37;38.83;35.04;42.35;;
61095;Laerm;20450;49.074;9.158;2022-12-18T04:28:08;38.81;35.36;41.61;;
61095;Laerm;20450;49.074;9.158;2022-12-18T04:30:38;38.65;35.36;41.06;;
61095;Laerm;20450;49.074;9.158;2022-12-18T04:33:09;39.03;35.04;41.89;;
61095;Laerm;20450;49.074;9.158;2022-12-18T04:35:39;38.97;35.36;46.66;;
61095;Laerm;20450;49.074;9.158;2022-12-18T04:38:07;38.81;35.04;41.30;;
61095;Laerm;20450;49.074;9.158;2022-12-18T04:40:35;39.62;35.36;44.49;;
61095;Laerm;20450;49.074;9.158;2022-12-18T04:43:05;39.01;35.36;42.29;;
61095;Laerm;20450;49.074;9.158;2022-12-18T04:45:33;38.67;35.36;42.76;;
61095;Laerm;20450;49.074;9.158;2022-12-18T04:48:02;38.82;35.36;42.53;;
61095;Laerm;20450;49.074;9.158;2022-12-18T04:50:30;38.64;34.69;41.14;;
61095;Laerm;20450;49.074;9.158;2022-12-18T04:52:57;39.10;35.36;46.89;;
61095;Laerm;20450;49.074;9.158;2022-12-18T04:55:24;39.03;35.04;43.44;;
61095;Laerm;20450;49.074;9.158;2022-12-18T04:57:51;38.86;35.36;41.30;;
61095;Laerm;20450;49.074;9.158;2022-12-18T05:00:18;38.57;35.66;41.96;;
61095;Laerm;20450;49.074;9.158;2022-12-18T05:02:45;38.74;35.66;42.59;;
61095;Laerm;20450;49.074;9.158;2022-12-18T05:05:14;38.83;35.36;41.53;;
61095;Laerm;20450;49.074;9.158;2022-12-18T05:07:41;38.80;35.66;41.22;;
61095;Laerm;20450;49.074;9.158;2022-12-18T05:10:09;38.70;35.36;41.22;;
61095;Laerm;20450;49.074;9.158;2022-12-18T05:12:36;39.30;34.31;43.49;;
61095;Laerm;20450;49.074;9.158;2022-12-18T05:15:04;38.64;35.04;41.30;;
61095;Laerm;20450;49.074;9.158;2022-12-18T05:17:31;38.68;35.04;41.30;;
61095;Laerm;20450;49.074;9.158;2022-12-18T05:19:58;38.84;35.36;43.94;;
61095;Laerm;20450;49.074;9.158;2022-12-18T05:22:26;39.70;35.04;52.12;;
61095;Laerm;20450;49.074;9.158;2022-12-18T05:24:53;38.97;35.36;42.53;;
61095;Laerm;20450;49.074;9.158;2022-12-18T05:27:20;38.86;35.66;41.89;;
61095;Laerm;20450;49.074;9.158;2022-12-18T05:29:47;38.97;34.69;42.29;;
61095;Laerm;20450;49.074;9.158;2022-12-18T05:32:15;38.82;35.01;42.35;;
61095;Laerm;20450;49.074;9.158;2022-12-18T05:34:41;38.72;35.04;41.38;;
61095;Laerm;20450;49.074;9.158;2022-12-18T05:37:08;38.64;34.31;45.11;;
61095;Laerm;20450;49.074;9.158;2022-12-18T05:39:36;38.58;35.04;47.76;;
61095;Laerm;20450;49.074;9.158;2022-12-18T05:42:03;38.78;35.66;41.19;;
61095;Laerm;20450;49.074;9.158;2022-12-18T05:44:32;38.95;35.04;44.82;;
61095;Laerm;20450;49.074;9.158;2022-12-18T05:46:58;38.62;35.04;47.90;;
61095;Laerm;20450;49.074;9.158;2022-12-18T05:49:26;39.02;35.04;43.29;;
61095;Laerm;20450;49.074;9.158;2022-12-18T05:51:53;38.82;35.36;42.03;;
61095;Laerm;20450;49.074;9.158;2022-12-18T05:54:20;39.04;35.04;41.82;;
61095;Laerm;20450;49.074;9.158;2022-12-18T05:56:48;38.72;35.36;46.25;;
61095;Laerm;20450;49.074;9.158;2022-12-18T05:59:15;38.66;35.66;41.22;;
61095;Laerm;20450;49.074;9.158;2022-12-18T06:01:42;38.91;35.04;42.71;;
61095;Laerm;20450;49.074;9.158;2022-12-18T06:04:09;38.69;34.69;41.22;;
61095;Laerm;20450;49.074;9.158;2022-12-18T06:06:35;38.61;35.04;42.93;;
61095;Laerm;20450;49.074;9.158;2022-12-18T06:09:03;38.90;35.94;41.89;;
61095;Laerm;20450;49.074;9.158;2022-12-18T06:11:30;38.60;34.31;41.75;;
61095;Laerm;20450;49.074;9.158;2022-12-18T06:13:58;39.04;34.69;42.88;;
61095;Laerm;20450;49.074;9.158;2022-12-18T06:16:27;38.77;34.69;52.67;;
61095;Laerm;20450;49.074;9.158;2022-12-18T06:18:56;39.06;35.04;44.58;;
61095;Laerm;20450;49.074;9.158;2022-12-18T06:21:23;38.60;34.69;40.98;;
61095;Laerm;20450;49.074;9.158;2022-12-18T06:23:50;38.71;35.04;42.88;;
61095;Laerm;20450;49.074;9.158;2022-12-18T06:26:17;38.60;34.69;42.88;;
61095;Laerm;20450;49.074;9.158;2022-12-18T06:28:50;38.80;35.86;41.46;;
61095;Laerm;20450;49.074;9.158;2022-12-18T06:31:18;38.79;35.04;44.23;;
61095;Laerm;20450;49.074;9.158;2022-12-18T06:33:45;38.78;35.36;41.89;;
61095;Laerm;20450;49.074;9.158;2022-12-18T06:36:13;38.92;34.69;41.53;;
61095;Laerm;20450;49.074;9.158;2022-12-18T06:38:42;39.01;35.04;45.83;;
61095;Laerm;20450;49.074;9.158;2022-12-18T06:41:12;38.68;34.69;41.22;;
61095;Laerm;20450;49.074;9.158;2022-12-18T06:43:39;38.71;35.36;49.39;;
61095;Laerm;20450;49.074;9.158;2022-12-18T06:46:08;38.67;35.59;43.99;;
61095;Laerm;20450;49.074;9.158;2022-12-18T06:48:37;38.64;35.04;42.03;;
61095;Laerm;20450;49.074;9.158;2022-12-18T06:51:05;39.41;35.36;45.48;;
61095;Laerm;20450;49.074;9.158;2022-12-18T06:53:33;38.92;35.04;42.93;;
61095;Laerm;20450;49.074;9.158;2022-12-18T06:56:01;39.17;35.66;44.73;;
61095;Laerm;20450;49.074;9.158;2022-12-18T06:58:35;38.73;35.04;41.14;;
61095;Laerm;20450;49.074;9.158;2022-12-18T07:01:05;38.85;35.36;41.75;;
61095;Laerm;20450;49.074;9.158;2022-12-18T07:03:33;38.94;35.04;47.67;;
61095;Laerm;20450;49.074;9.158;2022-12-18T07:06:01;38.80;35.36;42.59;;
61095;Laerm;20450;49.074;9.158;2022-12-18T07:08:29;38.90;35.04;45.14;;
61095;Laerm;20450;49.074;9.158;2022-12-18T07:10:56;38.83;34.69;42.16;;
61095;Laerm;20450;49.074;9.158;2022-12-18T07:13:23;38.92;34.31;52.41;;
61095;Laerm;20450;49.074;9.158;2022-12-18T07:15:50;39.54;35.94;54.09;;
61095;Laerm;20450;49.074;9.158;2022-12-18T07:18:17;38.91;35.36;43.14;;
61095;Laerm;20450;49.074;9.158;2022-12-18T07:20:43;38.71;35.04;42.93;;
61095;Laerm;20450;49.074;9.158;2022-12-18T07:23:13;38.72;35.04;45.23;;
61095;Laerm;20450;49.074;9.158;2022-12-18T07:25:40;38.82;35.36;43.81;;
61095;Laerm;20450;49.074;9.158;2022-12-18T07:28:07;39.21;35.66;44.47;;
61095;Laerm;20450;49.074;9.158;2022-12-18T07:30:40;39.24;35.66;48.80;;
61095;Laerm;20450;49.074;9.158;2022-12-18T07:33:07;39.14;35.94;48.10;;
61095;Laerm;20450;49.074;9.158;2022-12-18T07:35:34;38.97;35.04;42.93;;
61095;Laerm;20450;49.074;9.158;2022-12-18T07:38:01;38.90;35.94;41.89;;
61095;Laerm;20450;49.074;9.158;2022-12-18T07:40:29;39.24;35.66;46.35;;
61095;Laerm;20450;49.074;9.158;2022-12-18T07:42:56;38.98;35.66;43.04;;
61095;Laerm;20450;49.074;9.158;2022-12-18T07:45:23;39.22;35.36;47.76;;
61095;Laerm;20450;49.074;9.158;2022-12-18T07:47:51;39.38;35.04;45.20;;
61095;Laerm;20450;49.074;9.158;2022-12-18T07:50:18;39.30;35.94;55.20;;
61095;Laerm;20450;49.074;9.158;2022-12-18T07:52:45;40.46;35.94;63.94;;
61095;Laerm;20450;49.074;9.158;2022-12-18T07:55:11;39.15;35.36;41.68;;
61095;Laerm;20450;49.074;9.158;2022-12-18T07:57:40;38.97;35.94;43.77;;
61095;Laerm;20450;49.074;9.158;2022-12-18T08:00:17;40.68;35.94;56.22;;
61095;Laerm;20450;49.074;9.158;2022-12-18T08:02:44;39.27;35.36;43.00;;
61095;Laerm;20450;49.074;9.158;2022-12-18T08:05:11;39.26;35.36;43.86;;
61095;Laerm;20450;49.074;9.158;2022-12-18T08:07:39;39.24;35.66;43.19;;
61095;Laerm;20450;49.074;9.158;2022-12-18T08:10:07;39.26;35.94;42.03;;
61095;Laerm;20450;49.074;9.158;2022-12-18T08:12:34;39.39;35.66;42.88;;
61095;Laerm;20450;49.074;9.158;2022-12-18T08:15:03;39.66;36.20;47.98;;
61095;Laerm;20450;49.074;9.158;2022-12-18T08:17:31;39.61;35.66;44.58;;
61095;Laerm;20450;49.074;9.158;2022-12-18T08:19:58;39.62;35.66;47.96;;
61095;Laerm;20450;49.074;9.158;2022-12-18T08:22:25;39.87;35.94;51.50;;
61095;Laerm;20450;49.074;9.158;2022-12-18T08:24:52;39.23;35.04;45.04;;
61095;Laerm;20450;49.074;9.158;2022-12-18T08:27:19;39.40;35.36;47.77;;
61095;Laerm;20450;49.074;9.158;2022-12-18T08:29:55;39.70;35.94;43.58;;
61095;Laerm;20450;49.074;9.158;2022-12-18T08:32:24;39.68;36.20;47.86;;
61095;Laerm;20450;49.074;9.158;2022-12-18T08:34:51;39.86;35.04;47.36;;
61095;Laerm;20450;49.074;9.158;2022-12-18T08:37:18;39.94;35.94;49.33;;
61095;Laerm;20450;49.074;9.158;2022-12-18T08:39:45;39.39;36.20;44.19;;
61095;Laerm;20450;49.074;9.158;2022-12-18T08:42:12;39.78;36.10;48.05;;
61095;Laerm;20450;49.074;9.158;2022-12-18T08:44:38;40.15;36.69;44.19;;
61095;Laerm;20450;49.074;9.158;2022-12-18T08:47:06;39.75;36.20;55.16;;
61095;Laerm;20450;49.074;9.158;2022-12-18T08:49:35;39.80;35.94;45.48;;
61095;Laerm;20450;49.074;9.158;2022-12-18T08:52:03;39.66;36.91;44.58;;
61095;Laerm;20450;49.074;9.158;2022-12-18T08:54:30;40.02;36.69;51.57;;
61095;Laerm;20450;49.074;9.158;2022-12-18T08:56:56;40.52;36.69;51.36;;
61095;Laerm;20450;49.074;9.158;2022-12-18T08:59:23;39.93;36.77;44.43;;
61095;Laerm;20450;49.074;9.158;2022-12-18T09:01:50;40.22;37.12;46.62;;
61095;Laerm;20450;49.074;9.158;2022-12-18T09:04:20;40.31;36.91;48.84;;
61095;Laerm;20450;49.074;9.158;2022-12-18T09:06:49;40.53;37.52;44.51;;
61095;Laerm;20450;49.074;9.158;2022-12-18T09:09:16;40.20;37.70;43.68;;
61095;Laerm;20450;49.074;9.158;2022-12-18T09:11:43;40.79;37.88;49.91;;
61095;Laerm;20450;49.074;9.158;2022-12-18T09:14:10;40.55;37.32;42.88;;
61095;Laerm;20450;49.074;9.158;2022-12-18T09:16:37;40.96;37.70;58.04;;
61095;Laerm;20450;49.074;9.158;2022-12-18T09:19:06;40.95;38.21;48.58;;
61095;Laerm;20450;49.074;9.158;2022-12-18T09:21:34;40.71;38.21;43.19;;
61095;Laerm;20450;49.074;9.158;2022-12-18T09:24:05;41.28;38.52;48.61;;
61095;Laerm;20450;49.074;9.158;2022-12-18T09:26:35;41.22;38.52;56.35;;
61095;Laerm;20450;49.074;9.158;2022-12-18T09:29:02;42.01;38.81;51.12;;
61095;Laerm;20450;49.074;9.158;2022-12-18T09:31:29;41.63;38.95;48.15;;
61095;Laerm;20450;49.074;9.158;2022-12-18T09:33:57;41.45;38.67;47.90;;
61095;Laerm;20450;49.074;9.158;2022-12-18T09:36:23;41.16;38.67;52.79;;
61095;Laerm;20450;49.074;9.158;2022-12-18T09:38:51;42.54;39.08;60.35;;
61095;Laerm;20450;49.074;9.158;2022-12-18T09:41:39;41.67;38.81;48.98;;
61095;Laerm;20450;49.074;9.158;2022-12-18T09:44:18;40.99;38.47;45.91;;
61095;Laerm;20450;49.074;9.158;2022-12-18T09:46:57;41.06;38.05;44.59;;
61095;Laerm;20450;49.074;9.158;2022-12-18T09:49:30;40.69;36.20;48.02;;
61095;Laerm;20450;49.074;9.158;2022-12-18T09:52:05;40.04;36.69;44.35;;
61095;Laerm;20450;49.074;9.158;2022-12-18T09:54:39;41.20;36.91;47.61;;
61095;Laerm;20450;49.074;9.158;2022-12-18T09:57:14;40.83;37.88;43.54;;
61095;Laerm;20450;49.074;9.158;2022-12-18T09:59:44;39.69;35.66;42.53;;
61095;Laerm;20450;49.074;9.158;2022-12-18T10:02:16;40.13;36.20;44.23;;
61095;Laerm;20450;49.074;9.158;2022-12-18T10:04:50;40.44;36.91;44.73;;
61095;Laerm;20450;49.074;9.158;2022-12-18T10:07:36;40.14;36.91;46.18;;
61095;Laerm;20450;49.074;9.158;2022-12-18T10:10:17;40.29;36.69;42.93;;
61095;Laerm;20450;49.074;9.158;2022-12-18T10:12:59;39.99;36.45;43.04;;
61095;Laerm;20450;49.074;9.158;2022-12-18T10:15:36;40.21;36.69;43.58;;
61095;Laerm;20450;49.074;9.158;2022-12-18T10:18:22;40.07;35.94;45.60;;
61095;Laerm;20450;49.074;9.158;2022-12-18T10:21:04;40.10;36.69;50.85;;
61095;Laerm;20450;49.074;9.158;2022-12-18T10:23:47;39.97;35.94;43.72;;
61095;Laerm;20450;49.074;9.158;2022-12-18T10:26:18;40.17;35.94;54.65;;
61095;Laerm;20450;49.074;9.158;2022-12-18T10:28:49;40.17;36.20;47.34;;
61095;Laerm;20450;49.074;9.158;2022-12-18T10:31:22;40.17;36.91;43.33;;
61095;Laerm;20450;49.074;9.158;2022-12-18T10:33:51;40.70;35.36;45.48;;
61095;Laerm;20450;49.074;9.158;2022-12-18T10:36:20;40.47;35.94;51.02;;
61095;Laerm;20450;49.074;9.158;2022-12-18T10:38:49;40.94;37.52;49.50;;
61095;Laerm;20450;49.074;9.158;2022-12-18T10:41:27;40.95;38.52;43.86;;
61095;Laerm;20450;49.074;9.158;2022-12-18T10:46:54;41.39;38.37;45.17;;
61095;Laerm;20450;49.074;9.158;2022-12-18T10:49:26;41.28;38.67;45.45;;
61095;Laerm;20450;49.074;9.158;2022-12-18T10:52:07;41.79;38.81;48.69;;
61095;Laerm;20450;49.074;9.158;2022-12-18T10:54:40;41.84;38.95;48.76;;
61095;Laerm;20450;49.074;9.158;2022-12-18T10:57:33;41.82;38.81;49.53;;
61095;Laerm;20450;49.074;9.158;2022-12-18T11:00:24;42.18;38.67;50.76;;
61095;Laerm;20450;49.074;9.158;2022-12-18T11:02:53;41.71;37.70;48.42;;
61095;Laerm;20450;49.074;9.158;2022-12-18T11:05:28;42.80;39.92;48.76;;
61095;Laerm;20450;49.074;9.158;2022-12-18T11:07:56;42.13;39.46;50.64;;
61095;Laerm;20450;49.074;9.158;2022-12-18T11:10:30;42.02;38.05;50.47;;
61095;Laerm;20450;49.074;9.158;2022-12-18T11:13:11;42.53;39.34;54.35;;
61095;Laerm;20450;49.074;9.158;2022-12-18T11:15:40;41.57;38.81;43.44;;
61095;Laerm;20450;49.074;9.158;2022-12-18T11:18:19;41.80;39.08;46.23;;
61095;Laerm;20450;49.074;9.158;2022-12-18T11:20:53;42.34;38.81;52.10;;
61095;Laerm;20450;49.074;9.158;2022-12-18T11:23:25;41.77;39.21;47.63;;
61095;Laerm;20450;49.074;9.158;2022-12-18T11:25:57;41.38;39.08;43.14;;
61095;Laerm;20450;49.074;9.158;2022-12-18T11:28:45;42.05;38.52;49.23;;
61095;Laerm;20450;49.074;9.158;2022-12-18T11:31:24;41.59;38.52;44.76;;
61095;Laerm;20450;49.074;9.158;2022-12-18T11:34:02;42.00;39.08;47.67;;
61095;Laerm;20450;49.074;9.158;2022-12-18T11:36:52;42.17;39.46;48.23;;
61095;Laerm;20450;49.074;9.158;2022-12-18T11:39:28;42.30;39.46;47.12;;
61095;Laerm;20450;49.074;9.158;2022-12-18T11:42:09;42.23;39.34;50.44;;
61095;Laerm;20450;49.074;9.158;2022-12-18T11:44:46;42.00;38.37;59.45;;
61095;Laerm;20450;49.074;9.158;2022-12-18T11:47:34;42.40;39.08;53.01;;
61095;Laerm;20450;49.074;9.158;2022-12-18T11:50:19;42.10;39.46;56.00;;
61095;Laerm;20450;49.074;9.158;2022-12-18T11:52:48;42.11;38.67;45.83;;
61095;Laerm;20450;49.074;9.158;2022-12-18T11:55:37;41.22;38.37;46.20;;
61095;Laerm;20450;49.074;9.158;2022-12-18T11:58:19;41.77;39.08;46.05;;
61095;Laerm;20450;49.074;9.158;2022-12-18T12:01:12;41.54;39.21;43.86;;
61095;Laerm;20450;49.074;9.158;2022-12-18T12:04:14;41.57;38.52;49.59;;
61095;Laerm;20450;49.074;9.158;2022-12-18T12:07:00;41.90;38.95;49.66;;
61095;Laerm;20450;49.074;9.158;2022-12-18T12:09:43;41.68;38.95;44.43;;
61095;Laerm;20450;49.074;9.158;2022-12-18T12:12:33;42.05;39.08;45.83;;
61095;Laerm;20450;49.074;9.158;2022-12-18T12:15:14;42.35;38.95;50.43;;
61095;Laerm;20450;49.074;9.158;2022-12-18T12:17:54;41.69;38.67;47.55;;
61095;Laerm;20450;49.074;9.158;2022-12-18T12:20:42;41.87;38.67;53.93;;
61095;Laerm;20450;49.074;9.158;2022-12-18T12:23:25;41.68;39.08;47.68;;
61095;Laerm;20450;49.074;9.158;2022-12-18T12:26:02;42.27;39.08;46.10;;
61095;Laerm;20450;49.074;9.158;2022-12-18T12:28:52;41.29;38.81;47.81;;
61095;Laerm;20450;49.074;9.158;2022-12-18T12:31:41;41.69;38.67;47.70;;
61095;Laerm;20450;49.074;9.158;2022-12-18T12:34:20;41.97;38.81;51.44;;
61095;Laerm;20450;49.074;9.158;2022-12-18T12:37:05;41.89;38.95;49.04;;
61095;Laerm;20450;49.074;9.158;2022-12-18T12:39:42;41.82;39.34;49.95;;
61095;Laerm;20450;49.074;9.158;2022-12-18T12:42:29;41.47;38.52;47.74;;
61095;Laerm;20450;49.074;9.158;2022-12-18T12:45:04;41.59;38.21;56.65;;
61095;Laerm;20450;49.074;9.158;2022-12-18T12:47:39;41.66;38.05;49.27;;
61095;Laerm;20450;49.074;9.158;2022-12-18T12:50:17;41.50;38.21;48.32;;
61095;Laerm;20450;49.074;9.158;2022-12-18T12:52:50;41.48;38.21;48.69;;
61095;Laerm;20450;49.074;9.158;2022-12-18T12:55:25;41.38;37.88;48.07;;
61095;Laerm;20450;49.074;9.158;2022-12-18T12:58:06;41.74;38.67;48.05;;
61095;Laerm;20450;49.074;9.158;2022-12-18T13:00:45;41.34;38.52;47.76;;
61095;Laerm;20450;49.074;9.158;2022-12-18T13:03:34;40.96;38.05;43.63;;
61095;Laerm;20450;49.074;9.158;2022-12-18T13:06:15;41.17;38.21;44.62;;
61095;Laerm;20450;49.074;9.158;2022-12-18T13:08:59;41.16;38.21;48.63;;
61095;Laerm;20450;49.074;9.158;2022-12-18T13:11:41;41.37;38.67;46.66;;
61095;Laerm;20450;49.074;9.158;2022-12-18T13:14:22;41.03;37.70;50.18;;
61095;Laerm;20450;49.074;9.158;2022-12-18T13:16:51;41.11;38.21;46.25;;
61095;Laerm;20450;49.074;9.158;2022-12-18T13:19:23;41.06;38.52;45.66;;
61095;Laerm;20450;49.074;9.158;2022-12-18T13:21:54;41.33;38.05;46.18;;
61095;Laerm;20450;49.074;9.158;2022-12-18T13:24:26;40.93;38.05;46.50;;
61095;Laerm;20450;49.074;9.158;2022-12-18T13:26:56;41.54;37.88;47.32;;
61095;Laerm;20450;49.074;9.158;2022-12-18T13:29:42;40.80;37.32;50.62;;
61095;Laerm;20450;49.074;9.158;2022-12-18T13:32:22;40.51;37.70;53.93;;
61095;Laerm;20450;49.074;9.158;2022-12-18T13:35:38;41.04;37.52;46.76;;
61095;Laerm;20450;49.074;9.158;2022-12-18T13:38:21;41.42;36.91;47.93;;
61095;Laerm;20450;49.074;9.158;2022-12-18T13:40:55;40.80;37.70;50.06;;
61095;Laerm;20450;49.074;9.158;2022-12-18T13:43:30;40.30;37.32;51.58;;
61095;Laerm;20450;49.074;9.158;2022-12-18T13:46:02;40.98;37.88;43.68;;
61095;Laerm;20450;49.074;9.158;2022-12-18T13:48:35;41.04;37.12;47.12;;
61095;Laerm;20450;49.074;9.158;2022-12-18T13:51:06;41.12;38.05;49.10;;
61095;Laerm;20450;49.074;9.158;2022-12-18T13:53:42;41.63;38.81;46.78;;
61095;Laerm;20450;49.074;9.158;2022-12-18T13:56:16;43.55;38.05;58.69;;
61095;Laerm;20450;49.074;9.158;2022-12-18T13:58:45;40.60;36.91;43.09;;
61095;Laerm;20450;49.074;9.158;2022-12-18T14:01:22;40.13;36.20;44.27;;
61095;Laerm;20450;49.074;9.158;2022-12-18T14:03:49;41.74;38.52;46.57;;
61095;Laerm;20450;49.074;9.158;2022-12-18T14:06:17;40.95;37.88;47.52;;
61095;Laerm;20450;49.074;9.158;2022-12-18T14:08:45;40.38;36.69;46.55;;
61095;Laerm;20450;49.074;9.158;2022-12-18T14:11:22;40.76;37.32;48.10;;
61095;Laerm;20450;49.074;9.158;2022-12-18T14:13:53;40.78;37.32;48.83;;
61095;Laerm;20450;49.074;9.158;2022-12-18T14:16:21;40.50;37.32;43.81;;